Time;durP1;ratioP1;P1;durP2;ratioP2;P2;SDS_P1;SDS_P2;PMS_P1;PMS_P2;Temp;Humidity;BMP_temperature;BMP_pressure;BME280_temperature;BME280_humidity;BME280_pressure;Samples;Min_cycle;Max_cycle;Signal;HPM_P1;HPM_P2
2022/05/03 00:01:09;;;;;;;4.70;3.10;;;;;10.90;101277.00;;;;4907878;29;20244;-69
2022/05/03 00:04:07;;;;;;;3.83;2.93;;;;;204.60;224519.00;;;;4905511;29;20241;-69
2022/05/03 00:07:03;;;;;;;6.87;3.20;;;;;204.60;224519.00;;;;4904415;29;20762;-71
2022/05/03 00:10:02;;;;;;;5.30;3.27;;;;;204.60;224519.00;;;;4907606;29;20324;-69
2022/05/03 00:12:56;;;;;;;4.13;3.13;;;;;204.60;224519.00;;;;4907520;29;20787;-70
2022/05/03 00:15:44;;;;;;;5.50;3.10;;;;;204.60;224519.00;;;;4912058;29;20312;-70
2022/05/03 00:18:31;;;;;;;5.63;2.80;;;;;204.60;224519.00;;;;4905342;29;20367;-69
2022/05/03 00:21:18;;;;;;;4.50;2.97;;;;;204.60;224519.00;;;;4909971;29;20333;-70
2022/05/03 00:24:06;;;;;;;3.87;3.00;;;;;204.60;224519.00;;;;4911568;29;20380;-69
2022/05/03 00:26:53;;;;;;;4.93;2.93;;;;;204.60;224519.00;;;;4911948;29;20374;-69
2022/05/03 00:29:39;;;;;;;4.70;2.60;;;;;204.60;224519.00;;;;4906149;29;20341;-69
2022/05/03 00:32:27;;;;;;;5.77;3.17;;;;;204.60;224519.00;;;;4903920;29;20237;-67
2022/05/03 00:35:13;;;;;;;5.03;2.87;;;;;204.60;224519.00;;;;4911507;29;20321;-70
2022/05/03 00:38:00;;;;;;;5.50;3.47;;;;;204.60;224519.00;;;;4911564;29;20237;-68
2022/05/03 00:40:53;;;;;;;5.83;3.17;;;;;204.60;224519.00;;;;4911564;29;20273;-68
2022/05/03 00:43:50;;;;;;;4.90;3.23;;;;;204.60;224519.00;;;;4911844;29;20771;-70
2022/05/03 00:46:39;;;;;;;6.07;3.10;;;;;204.60;224519.00;;;;4905370;29;20256;-69
2022/05/03 00:49:32;;;;;;;4.40;3.00;;;;;204.60;224519.00;;;;4911255;29;20235;-68
2022/05/03 00:52:25;;;;;;;4.80;2.77;;;;;204.60;224519.00;;;;4909812;29;21003;-70
2022/05/03 00:55:28;;;;;;;8.37;3.10;;;;;204.60;224519.00;;;;4920864;28;20283;-70
2022/05/03 00:58:35;;;;;;;5.17;3.47;;;;;10.10;101473.00;;;;4930301;28;20682;-69
2022/05/03 01:01:27;;;;;;;6.83;3.20;;;;;10.00;101248.00;;;;4929612;28;20305;-68
2022/05/03 01:04:21;;;;;;;4.23;3.10;;;;;10.00;101244.00;;;;4929942;28;20246;-69
2022/05/03 01:07:23;;;;;;;4.03;2.90;;;;;10.00;101238.00;;;;4929989;28;20308;-68
2022/05/03 01:10:18;;;;;;;5.20;3.20;;;;;9.90;101241.00;;;;4929766;28;20798;-68
2022/05/03 01:13:10;;;;;;;5.30;3.30;;;;;9.80;101234.00;;;;4929460;28;20320;-69
2022/05/03 01:16:02;;;;;;;4.70;2.50;;;;;9.80;101230.00;;;;4930282;28;20394;-68
2022/05/03 01:18:54;;;;;;;3.70;2.43;;;;;9.80;101239.00;;;;4912340;28;20335;-68
2022/05/03 01:22:07;;;;;;;4.37;2.80;;;;;9.70;101234.00;;;;4906113;29;20749;-68
2022/05/03 01:25:22;;;;;;;4.83;2.90;;;;;9.70;101238.00;;;;4908830;29;20357;-69
2022/05/03 01:28:17;;;;;;;3.73;2.70;;;;;9.70;101237.00;;;;4908183;29;20249;-69
2022/05/03 01:31:10;;;;;;;4.57;2.73;;;;;9.70;101225.00;;;;4910644;29;21075;-66
2022/05/03 01:34:01;;;;;;;6.67;2.50;;;;;9.70;101230.00;;;;4910264;29;20238;-69
2022/05/03 01:36:54;;;;;;;5.73;3.17;;;;;9.70;101225.00;;;;4934119;28;20722;-68
2022/05/03 01:39:56;;;;;;;3.87;2.80;;;;;9.60;101231.00;;;;4915665;29;20293;-69
2022/05/03 01:43:04;;;;;;;5.10;2.97;;;;;9.50;101236.00;;;;4911661;29;20779;-69
2022/05/03 01:46:03;;;;;;;6.30;3.20;;;;;9.50;101223.00;;;;4906257;29;20243;-68
2022/05/03 01:52:35;;;;;;;5.43;3.30;;;;;9.30;101220.00;;;;4906392;29;20308;-69
2022/05/03 01:55:44;;;;;;;4.30;3.10;;;;;9.30;101223.00;;;;4909914;29;20294;-69
2022/05/03 01:58:37;;;;;;;5.23;2.93;;;;;9.20;101218.00;;;;4902888;29;20294;-69
2022/05/03 02:01:38;;;;;;;5.47;2.90;;;;;9.20;101220.00;;;;4909388;29;20291;-68
2022/05/03 02:04:45;;;;;;;3.77;2.73;;;;;8.90;101209.00;;;;4909890;29;20326;-68
2022/05/03 02:07:47;;;;;;;5.03;3.27;;;;;8.90;101217.00;;;;4902401;29;20274;-68
2022/05/03 02:10:46;;;;;;;4.30;2.87;;;;;9.00;101227.00;;;;4902761;29;20789;-68
2022/05/03 02:16:59;;;;;;;4.17;3.00;;;;;8.90;101225.00;;;;4904851;29;20329;-66
2022/05/03 02:20:05;;;;;;;5.03;3.50;;;;;8.80;101227.00;;;;4905831;29;20228;-66
2022/05/03 02:23:21;;;;;;;4.33;3.00;;;;;8.70;101221.00;;;;4906927;29;20894;-68
2022/05/03 02:26:37;;;;;;;4.37;3.00;;;;;8.80;101218.00;;;;4908730;29;20748;-69
2022/05/03 02:29:31;;;;;;;5.00;3.23;;;;;8.70;101220.00;;;;4909454;29;20234;-69
2022/05/03 02:32:25;;;;;;;6.07;3.07;;;;;8.70;101216.00;;;;4908802;29;20249;-69
2022/05/03 02:35:20;;;;;;;4.70;3.33;;;;;8.50;101213.00;;;;4909197;29;20252;-68
2022/05/03 02:38:07;;;;;;;4.77;3.33;;;;;8.50;101204.00;;;;4909599;29;20261;-68
2022/05/03 02:40:55;;;;;;;4.33;2.70;;;;;8.50;101227.00;;;;4904538;29;20229;-67
2022/05/03 02:43:43;;;;;;;6.67;3.40;;;;;8.40;101225.00;;;;4918826;29;20722;-69
2022/05/03 02:46:48;;;;;;;5.10;3.20;;;;;8.40;101230.00;;;;4928303;28;20230;-67
2022/05/03 02:49:42;;;;;;;4.40;3.20;;;;;8.50;101224.00;;;;4909410;29;20231;-69
2022/05/03 02:52:40;;;;;;;8.10;3.27;;;;;8.50;101223.00;;;;4927804;28;20237;-68
2022/05/03 02:55:42;;;;;;;4.87;3.40;;;;;8.40;101228.00;;;;4928079;28;20304;-68
2022/05/03 02:58:41;;;;;;;5.23;3.13;;;;;8.40;101226.00;;;;4928109;28;21552;-69
2022/05/03 03:01:47;;;;;;;5.43;3.17;;;;;8.40;101234.00;;;;4927309;28;20312;-69
2022/05/03 03:04:37;;;;;;;5.00;3.03;;;;;8.30;101238.00;;;;4901280;29;20241;-68
2022/05/03 03:07:24;;;;;;;5.97;3.67;;;;;8.20;101236.00;;;;4908980;29;20241;-69
2022/05/03 03:10:17;;;;;;;5.70;3.50;;;;;8.20;101231.00;;;;4908908;29;20260;-69
2022/05/03 03:13:10;;;;;;;5.63;3.70;;;;;8.10;101213.00;;;;4907450;29;20250;-65
2022/05/03 03:15:56;;;;;;;7.63;3.83;;;;;8.20;101225.00;;;;4904469;29;20260;-69
2022/05/03 03:18:47;;;;;;;5.60;3.83;;;;;8.20;101220.00;;;;4902380;29;20234;-68
2022/05/03 03:21:36;;;;;;;6.27;3.73;;;;;8.10;101219.00;;;;4908108;29;20594;-66
2022/05/03 03:24:26;;;;;;;6.50;3.57;;;;;8.00;101201.00;;;;4908640;29;20733;-70
2022/05/03 03:27:15;;;;;;;7.13;4.20;;;;;8.00;101220.00;;;;4908875;29;20237;-68
2022/05/03 03:30:03;;;;;;;5.60;3.50;;;;;7.90;101222.00;;;;4909214;29;20245;-69
2022/05/03 03:32:51;;;;;;;6.00;3.57;;;;;7.90;101218.00;;;;4902865;29;20233;-66
2022/05/03 03:35:39;;;;;;;7.00;4.07;;;;;7.90;101212.00;;;;4901304;29;20244;-68
2022/05/03 03:38:32;;;;;;;7.37;4.20;;;;;7.90;101204.00;;;;4908595;29;20241;-69
2022/05/03 03:41:18;;;;;;;6.53;4.17;;;;;7.90;101213.00;;;;4908102;29;20237;-68
2022/05/03 03:44:07;;;;;;;7.37;4.07;;;;;7.80;101211.00;;;;4920247;28;20240;-67
2022/05/03 03:46:54;;;;;;;6.33;3.97;;;;;7.80;101198.00;;;;4907721;29;20237;-68
2022/05/03 03:49:41;;;;;;;7.87;3.70;;;;;7.80;101210.00;;;;4901291;29;20327;-69
2022/05/03 03:52:28;;;;;;;8.57;4.77;;;;;7.80;101219.00;;;;4908154;29;20332;-67
2022/05/03 03:55:14;;;;;;;7.27;4.13;;;;;7.70;101212.00;;;;4908127;29;20253;-68
2022/05/03 03:58:02;;;;;;;8.60;4.17;;;;;7.70;101216.00;;;;4908880;29;20782;-69
2022/05/03 04:00:50;;;;;;;7.33;4.77;;;;;7.70;101213.00;;;;4908326;29;20237;-69
2022/05/03 04:03:38;;;;;;;6.53;4.03;;;;;7.80;101218.00;;;;4908375;29;20618;-69
2022/05/03 04:06:24;;;;;;;8.10;4.30;;;;;7.70;101219.00;;;;4908386;29;20284;-69
2022/05/03 04:09:10;;;;;;;7.00;4.50;;;;;7.80;101224.00;;;;4908363;29;20240;-68
2022/05/03 04:11:58;;;;;;;7.23;3.73;;;;;7.70;101219.00;;;;4908077;29;20241;-70
2022/05/03 04:14:45;;;;;;;6.97;4.50;;;;;7.70;101229.00;;;;4901815;29;20242;-69
2022/05/03 04:17:33;;;;;;;6.63;3.97;;;;;7.70;101229.00;;;;4907040;29;20236;-69
2022/05/03 04:20:19;;;;;;;7.13;4.50;;;;;7.90;101219.00;;;;4905562;29;20651;-68
2022/05/03 04:23:05;;;;;;;6.33;4.03;;;;;7.80;101231.00;;;;4908111;29;20789;-68
2022/05/03 04:25:51;;;;;;;10.17;4.17;;;;;7.90;101237.00;;;;4902503;29;20300;-69
2022/05/03 04:28:37;;;;;;;8.73;4.20;;;;;8.00;101223.00;;;;4907991;29;20241;-69
2022/05/03 04:31:26;;;;;;;8.63;4.07;;;;;8.10;101218.00;;;;4907994;29;20230;-68
2022/05/03 04:34:13;;;;;;;8.50;4.17;;;;;8.00;101190.00;;;;4908087;29;20362;-70
2022/05/03 04:37:00;;;;;;;8.33;4.03;;;;;8.00;101224.00;;;;4908451;29;20233;-69
2022/05/03 04:39:46;;;;;;;6.10;3.83;;;;;8.00;101221.00;;;;4901453;29;20610;-71
2022/05/03 04:42:33;;;;;;;5.70;3.87;;;;;8.00;101229.00;;;;4907522;29;20245;-69
2022/05/03 04:45:19;;;;;;;6.50;4.07;;;;;8.10;101230.00;;;;4908121;29;20237;-65
2022/05/03 04:48:07;;;;;;;6.27;4.23;;;;;8.10;101219.00;;;;4908348;29;20776;-69
2022/05/03 04:50:54;;;;;;;6.77;4.10;;;;;8.20;101227.00;;;;4906479;29;20242;-69
2022/05/03 04:53:40;;;;;;;6.27;4.00;;;;;8.20;101226.00;;;;4900444;29;20293;-68
2022/05/03 04:56:27;;;;;;;6.90;4.10;;;;;8.20;101225.00;;;;4910406;29;20267;-65
2022/05/03 04:59:13;;;;;;;5.70;3.73;;;;;8.30;101232.00;;;;4911431;29;20237;-68
2022/05/03 05:01:59;;;;;;;5.20;3.53;;;;;8.20;101244.00;;;;4902985;29;20237;-67
2022/05/03 05:04:45;;;;;;;7.03;3.80;;;;;8.20;101235.00;;;;4904526;29;20726;-67
2022/05/03 05:07:33;;;;;;;7.17;3.90;;;;;8.30;101240.00;;;;4911134;29;20331;-68
2022/05/03 05:10:26;;;;;;;6.93;4.10;;;;;8.50;101239.00;;;;4910994;29;20245;-65
2022/05/03 05:13:13;;;;;;;6.73;3.80;;;;;8.50;101248.00;;;;4925858;28;20249;-68
2022/05/03 05:15:59;;;;;;;6.47;3.80;;;;;8.60;101243.00;;;;4904859;29;20238;-69
2022/05/03 05:18:46;;;;;;;9.50;4.00;;;;;8.60;101243.00;;;;4916786;28;20229;-67
2022/05/03 05:21:32;;;;;;;7.47;3.80;;;;;8.80;101253.00;;;;4907967;29;20238;-68
2022/05/03 05:24:20;;;;;;;5.80;3.77;;;;;8.90;101258.00;;;;4910815;29;20253;-68
2022/05/03 05:27:05;;;;;;;4.97;3.40;;;;;9.10;101250.00;;;;4911267;29;20237;-68
2022/05/03 05:29:52;;;;;;;5.13;3.60;;;;;9.20;101254.00;;;;4911315;29;20238;-67
2022/05/03 05:32:39;;;;;;;9.43;3.87;;;;;9.30;101260.00;;;;4910377;29;20241;-68
2022/05/03 05:35:25;;;;;;;5.87;3.70;;;;;9.30;101257.00;;;;4910611;29;20238;-67
2022/05/03 05:38:14;;;;;;;6.27;3.37;;;;;9.40;101264.00;;;;4910740;29;20241;-67
2022/05/03 05:41:12;;;;;;;5.00;3.27;;;;;9.50;101262.00;;;;4905433;29;20442;-68
2022/05/03 05:43:58;;;;;;;7.70;3.47;;;;;9.50;101259.00;;;;4905792;29;20259;-68
2022/05/03 05:46:44;;;;;;;4.93;3.20;;;;;9.60;101256.00;;;;4905458;29;20242;-67
2022/05/03 05:49:30;;;;;;;4.37;2.90;;;;;9.70;101261.00;;;;4910749;29;20604;-67
2022/05/03 05:55:20;;;;;;;4.30;3.13;;;;;9.80;101257.00;;;;4906876;29;20242;-67
2022/05/03 05:58:08;;;;;;;5.50;3.37;;;;;9.80;101235.00;;;;4910457;29;20288;-68
2022/05/03 06:00:54;;;;;;;5.87;3.70;;;;;9.90;101251.00;;;;4904083;29;20234;-68
2022/05/03 06:03:43;;;;;;;3.87;2.90;;;;;10.00;101259.00;;;;4910257;29;20252;-67
2022/05/03 06:06:31;;;;;;;5.23;3.10;;;;;10.00;101258.00;;;;4910097;29;20242;-68
2022/05/03 06:09:17;;;;;;;3.17;2.50;;;;;10.10;101273.00;;;;4910209;29;20262;-67
2022/05/03 06:12:04;;;;;;;4.37;3.00;;;;;10.10;101269.00;;;;4901637;29;20237;-68
2022/05/03 06:14:52;;;;;;;5.53;3.40;;;;;10.30;101269.00;;;;4905781;29;20680;-67
2022/05/03 06:17:40;;;;;;;5.17;2.87;;;;;10.10;101277.00;;;;4909919;29;20234;-66
2022/05/03 06:20:26;;;;;;;4.93;2.47;;;;;10.20;101281.00;;;;4909909;29;20302;-67
2022/05/03 06:23:12;;;;;;;4.17;2.93;;;;;10.40;101277.00;;;;4910043;29;20724;-66
2022/05/03 06:25:59;;;;;;;4.20;2.87;;;;;10.40;101286.00;;;;4906725;29;20721;-65
2022/05/03 06:28:45;;;;;;;6.30;2.97;;;;;10.50;101276.00;;;;4909929;29;20612;-66
2022/05/03 06:31:33;;;;;;;3.63;2.63;;;;;10.50;101281.00;;;;4908995;29;20278;-67
2022/05/03 06:34:20;;;;;;;6.43;3.17;;;;;10.60;101284.00;;;;4909604;29;20277;-66
2022/05/03 06:37:06;;;;;;;5.07;3.33;;;;;10.70;101284.00;;;;4909500;29;20263;-67
2022/05/03 06:39:53;;;;;;;5.07;3.40;;;;;10.70;101289.00;;;;4903227;29;20317;-67
2022/05/03 06:42:41;;;;;;;3.83;2.77;;;;;10.90;101295.00;;;;4909260;29;20264;-67
2022/05/03 06:45:27;;;;;;;3.33;2.63;;;;;11.00;101280.00;;;;4909563;29;20316;-67
2022/05/03 06:48:15;;;;;;;4.03;2.67;;;;;11.00;101284.00;;;;4909568;29;20617;-66
2022/05/03 06:51:01;;;;;;;2.70;2.30;;;;;11.10;101285.00;;;;4898287;29;20247;-69
2022/05/03 06:53:48;;;;;;;3.00;2.47;;;;;11.30;101291.00;;;;4909364;29;20268;-65
2022/05/03 06:56:36;;;;;;;2.83;2.33;;;;;11.50;101288.00;;;;4909273;29;20324;-68
2022/05/03 06:59:22;;;;;;;3.27;2.10;;;;;11.50;101298.00;;;;4909621;29;20997;-68
2022/05/03 07:02:09;;;;;;;4.70;2.40;;;;;11.60;101305.00;;;;4905969;29;20613;-67
2022/05/03 07:04:57;;;;;;;3.83;2.43;;;;;11.90;101292.00;;;;4909790;29;20237;-67
2022/05/03 07:07:43;;;;;;;3.47;2.30;;;;;11.80;101305.00;;;;4909068;29;20236;-67
2022/05/03 07:10:29;;;;;;;2.60;2.10;;;;;12.10;101302.00;;;;4908949;29;20233;-67
2022/05/03 07:13:19;;;;;;;3.17;2.20;;;;;12.00;101299.00;;;;4905569;29;20623;-68
2022/05/03 07:16:05;;;;;;;4.77;1.90;;;;;12.20;101301.00;;;;4903698;29;20250;-67
2022/05/03 07:25:03;;;;;;;2.60;2.00;;;;;12.50;101318.00;;;;4916914;28;20248;-67
2022/05/03 07:27:50;;;;;;;2.20;1.53;;;;;12.50;101317.00;;;;4927861;28;20307;-68
2022/05/03 07:30:36;;;;;;;2.03;1.80;;;;;12.60;101324.00;;;;4927435;28;20236;-66
2022/05/03 07:33:22;;;;;;;2.37;1.83;;;;;12.60;101319.00;;;;4927941;28;20239;-66
2022/05/03 07:36:09;;;;;;;2.47;1.63;;;;;12.60;101325.00;;;;4905788;28;20394;-67
2022/05/03 07:38:57;;;;;;;4.50;1.60;;;;;12.80;101316.00;;;;4901920;29;20605;-67
2022/05/03 07:41:43;;;;;;;2.17;1.80;;;;;12.90;101325.00;;;;4908365;29;20233;-68
2022/05/03 07:44:29;;;;;;;2.87;1.70;;;;;13.00;101323.00;;;;4927548;28;20769;-68
2022/05/03 07:47:15;;;;;;;1.50;1.37;;;;;13.20;101333.00;;;;4927415;28;20232;-68
2022/05/03 07:50:02;;;;;;;2.43;2.07;;;;;13.40;101334.00;;;;4902476;28;20967;-67
2022/05/03 07:52:48;;;;;;;1.77;1.47;;;;;13.40;101321.00;;;;4908588;28;20611;-67
2022/05/03 07:55:36;;;;;;;1.83;1.60;;;;;13.60;101329.00;;;;4908725;29;20236;-67
2022/05/03 07:58:23;;;;;;;4.67;1.87;;;;;13.80;101329.00;;;;4909323;29;20365;-68
2022/05/03 08:01:09;;;;;;;2.07;1.83;;;;;13.80;101336.00;;;;4903102;29;20241;-68
2022/05/03 08:03:56;;;;;;;2.93;1.60;;;;;14.00;101329.00;;;;4901724;29;20244;-69
2022/05/03 08:06:42;;;;;;;1.43;1.33;;;;;14.00;101329.00;;;;4908426;29;20273;-68
2022/05/03 08:09:28;;;;;;;1.57;1.33;;;;;14.10;101326.00;;;;4908168;29;20253;-67
2022/05/03 08:12:17;;;;;;;2.33;1.60;;;;;14.20;101344.00;;;;4904325;29;20249;-66
2022/05/03 08:15:04;;;;;;;2.40;1.40;;;;;14.20;101335.00;;;;4902128;29;20242;-68
2022/05/03 08:17:50;;;;;;;2.77;1.90;;;;;14.40;101343.00;;;;4908272;29;20240;-67
2022/05/03 08:20:38;;;;;;;1.67;1.50;;;;;14.60;101342.00;;;;4907799;29;20239;-67
2022/05/03 08:23:24;;;;;;;2.23;1.60;;;;;14.60;101342.00;;;;4908391;29;20298;-67
2022/05/03 08:26:11;;;;;;;2.00;1.50;;;;;14.60;101360.00;;;;4902773;29;20245;-67
2022/05/03 08:28:58;;;;;;;2.17;1.70;;;;;14.60;101356.00;;;;4904185;29;20233;-68
2022/05/03 08:31:44;;;;;;;1.57;1.47;;;;;14.80;101350.00;;;;4911660;29;20261;-67
2022/05/03 08:34:31;;;;;;;1.70;1.60;;;;;15.00;101347.00;;;;4912045;29;20242;-68
2022/05/03 08:43:25;;;;;;;2.80;1.97;;;;;15.20;101348.00;;;;4907777;29;20233;-69
2022/05/03 08:46:13;;;;;;;1.50;1.40;;;;;15.20;101348.00;;;;4905882;29;20241;-66
2022/05/03 08:49:02;;;;;;;1.53;1.40;;;;;15.30;101347.00;;;;4896932;29;20338;-67
2022/05/03 08:51:51;;;;;;;2.90;1.90;;;;;15.60;101362.00;;;;4911084;29;20260;-68
2022/05/03 08:54:38;;;;;;;2.13;1.63;;;;;15.70;101340.00;;;;4911358;29;20240;-69
2022/05/03 08:57:24;;;;;;;2.53;1.63;;;;;15.70;101351.00;;;;4911575;29;20285;-68
2022/05/03 09:00:13;;;;;;;2.50;1.93;;;;;15.80;101351.00;;;;4905903;29;20242;-68
2022/05/03 09:03:00;;;;;;;4.53;1.90;;;;;16.00;101358.00;;;;4903850;29;20312;-68
2022/05/03 09:05:46;;;;;;;3.43;1.60;;;;;16.00;101365.00;;;;4911217;29;20286;-68
2022/05/03 09:08:34;;;;;;;3.90;1.90;;;;;16.10;101369.00;;;;4911285;29;20313;-68
2022/05/03 09:11:20;;;;;;;2.57;1.80;;;;;16.20;101368.00;;;;4908333;29;20240;-67
2022/05/03 09:14:06;;;;;;;3.50;1.80;;;;;16.30;101362.00;;;;4905016;29;20406;-66
2022/05/03 09:16:53;;;;;;;4.07;2.20;;;;;16.60;101363.00;;;;4910901;29;20252;-67
2022/05/03 09:19:40;;;;;;;3.43;2.40;;;;;16.70;101359.00;;;;4910948;29;20261;-66
2022/05/03 09:25:31;;;;;;;4.57;1.60;;;;;16.70;101357.00;;;;4919359;28;20237;-69
2022/05/03 09:28:21;;;;;;;3.90;2.60;;;;;16.90;101362.00;;;;4929840;28;20252;-67
2022/05/03 09:31:07;;;;;;;3.47;2.27;;;;;17.10;101309.00;;;;4907189;29;20790;-67
2022/05/03 09:33:53;;;;;;;3.07;2.10;;;;;17.20;101361.00;;;;4911177;28;20237;-68
2022/05/03 09:36:48;;;;;;;2.10;1.60;;;;;17.20;101360.00;;;;4923062;28;20757;-68
2022/05/03 09:39:51;;;;;;;4.23;1.83;;;;;17.40;101362.00;;;;4910283;29;20354;-65
2022/05/03 09:42:40;;;;;;;3.70;2.30;;;;;17.30;101370.00;;;;4910327;29;20284;-68
2022/05/03 09:45:28;;;;;;;2.97;2.03;;;;;17.70;101365.00;;;;4930029;28;20788;-69
2022/05/03 09:48:13;;;;;;;2.73;1.90;;;;;17.40;101359.00;;;;4906456;29;20313;-67
2022/05/03 09:51:00;;;;;;;2.70;2.00;;;;;17.40;101359.00;;;;4906518;29;20229;-67
2022/05/03 09:53:57;;;;;;;3.27;2.00;;;;;17.70;101362.00;;;;4910135;29;20802;-66
2022/05/03 09:56:51;;;;;;;4.00;2.60;;;;;17.60;101362.00;;;;4910164;29;20240;-67
2022/05/03 09:59:38;;;;;;;3.30;2.07;;;;;18.10;101358.00;;;;4909903;29;20257;-67
2022/05/03 10:02:26;;;;;;;2.43;1.70;;;;;18.20;101348.00;;;;4909906;29;20843;-68
2022/05/03 10:05:13;;;;;;;4.77;2.03;;;;;18.30;101352.00;;;;4910348;29;20298;-67
2022/05/03 10:07:59;;;;;;;2.47;1.97;;;;;18.40;101350.00;;;;4899744;29;20245;-67
2022/05/03 10:10:56;;;;;;;2.10;1.80;;;;;18.50;101352.00;;;;4909601;29;20431;-67
2022/05/03 10:13:43;;;;;;;4.10;2.00;;;;;18.50;101349.00;;;;4907674;29;20689;-66
2022/05/03 10:22:40;;;;;;;2.97;2.00;;;;;18.60;101344.00;;;;4928202;28;20244;-67
2022/05/03 10:25:29;;;;;;;3.10;2.00;;;;;18.60;101338.00;;;;4929047;28;20862;-68
2022/05/03 10:28:17;;;;;;;3.03;2.20;;;;;19.00;101331.00;;;;4904055;29;20254;-68
2022/05/03 10:31:13;;;;;;;4.13;2.27;;;;;19.20;101338.00;;;;4902040;29;20238;-67
2022/05/03 10:34:02;;;;;;;2.63;2.27;;;;;19.00;101336.00;;;;4909240;29;20240;-66
2022/05/03 10:36:49;;;;;;;3.43;2.30;;;;;18.80;101344.00;;;;4909477;29;20246;-67
2022/05/03 10:39:46;;;;;;;2.60;2.00;;;;;18.90;101339.00;;;;4909488;29;20229;-67
2022/05/03 10:42:33;;;;;;;2.80;2.30;;;;;18.90;101326.00;;;;4905548;29;20241;-67
2022/05/03 10:45:25;;;;;;;3.97;2.80;;;;;19.10;101337.00;;;;4904024;29;20233;-67
2022/05/03 10:48:25;;;;;;;4.27;2.80;;;;;18.80;101331.00;;;;4902765;29;20230;-66
2022/05/03 10:51:13;;;;;;;3.30;2.30;;;;;19.10;101316.00;;;;4908951;29;20234;-67
2022/05/03 10:53:59;;;;;;;2.93;2.10;;;;;19.60;101320.00;;;;4909545;29;20253;-68
2022/05/03 10:57:01;;;;;;;3.17;2.30;;;;;19.20;101325.00;;;;4907956;29;20715;-68
2022/05/03 10:59:49;;;;;;;3.23;2.33;;;;;19.60;101318.00;;;;4909486;29;20662;-68
2022/05/03 11:03:18;;;;;;;4.50;2.80;;;;;19.60;101320.00;;;;4908945;29;20315;-68
2022/05/03 11:06:37;;;;;;;3.83;2.80;;;;;19.50;101325.00;;;;4901977;29;20614;-68
2022/05/03 11:09:29;;;;;;;4.73;3.30;;;;;19.40;101317.00;;;;4906071;29;20286;-68
2022/05/03 11:12:15;;;;;;;4.73;3.37;;;;;19.40;101316.00;;;;4902154;29;20256;-66
2022/05/03 11:15:05;;;;;;;4.20;2.93;;;;;19.10;101306.00;;;;4908899;29;20599;-67
2022/05/03 11:17:54;;;;;;;3.43;2.77;;;;;19.50;101316.00;;;;4908500;29;20626;-68
2022/05/03 11:20:40;;;;;;;5.60;3.37;;;;;19.60;101309.00;;;;4908298;29;20237;-68
2022/05/03 11:23:26;;;;;;;4.17;2.67;;;;;19.80;101313.00;;;;4908852;29;20242;-68
2022/05/03 11:26:12;;;;;;;3.77;2.80;;;;;20.00;101305.00;;;;4902016;29;20305;-68
2022/05/03 11:29:02;;;;;;;4.17;2.67;;;;;20.00;101306.00;;;;4908137;29;20369;-68
2022/05/03 11:31:50;;;;;;;3.57;2.60;;;;;19.80;101301.00;;;;4908859;29;20241;-68
2022/05/03 11:34:39;;;;;;;5.67;2.57;;;;;20.10;101303.00;;;;4909065;29;20306;-67
2022/05/03 11:37:26;;;;;;;3.83;2.80;;;;;20.20;101295.00;;;;4908912;29;20230;-64
2022/05/03 11:40:12;;;;;;;3.90;2.53;;;;;20.40;101301.00;;;;4902231;29;20398;-68
2022/05/03 11:42:59;;;;;;;3.83;2.57;;;;;20.50;101302.00;;;;4912114;29;20235;-68
2022/05/03 11:45:46;;;;;;;3.83;2.70;;;;;20.40;101281.00;;;;4914300;28;20367;-67
2022/05/03 11:48:32;;;;;;;4.23;2.53;;;;;20.70;101292.00;;;;4908975;29;20374;-67
2022/05/03 11:57:33;;;;;;;4.97;2.90;;;;;21.50;101284.00;;;;4904024;29;20299;-65
2022/05/03 12:00:20;;;;;;;3.57;2.70;;;;;21.20;101284.00;;;;4905595;28;20837;-67
2022/05/03 12:03:07;;;;;;;4.50;2.60;;;;;21.30;101274.00;;;;4908075;29;20310;-67
2022/05/03 12:06:02;;;;;;;3.93;2.87;;;;;21.60;101281.00;;;;4912221;29;20238;-67
2022/05/03 12:08:53;;;;;;;4.83;2.60;;;;;21.70;101276.00;;;;4912091;29;20240;-67
2022/05/03 12:12:42;;;;;;;5.37;3.20;;;;;22.00;101270.00;;;;4906739;29;20244;-67
2022/05/03 12:14:47;;;;;;;5.13;2.97;;;;;22.00;101264.00;;;;4909558;29;20240;-67
2022/05/03 12:17:52;;;;;;;5.00;2.83;;;;;21.80;101268.00;;;;4912271;29;20243;-69
2022/05/03 12:20:46;;;;;;;6.97;3.67;;;;;21.40;101268.00;;;;4908410;29;20368;-67
2022/05/03 12:23:40;;;;;;;6.90;2.93;;;;;21.20;101269.00;;;;4911148;29;20730;-67
2022/05/03 12:26:35;;;;;;;5.13;3.13;;;;;20.60;101259.00;;;;4906688;29;20236;-67
2022/05/03 12:29:26;;;;;;;5.43;3.43;;;;;20.80;101255.00;;;;4905973;29;20717;-68
2022/05/03 12:32:14;;;;;;;4.10;2.70;;;;;21.80;101230.00;;;;4904300;29;20357;-67
2022/05/03 12:35:01;;;;;;;5.67;3.50;;;;;22.30;101252.00;;;;4911092;29;20241;-67
2022/05/03 12:37:52;;;;;;;4.20;2.90;;;;;22.70;101256.00;;;;4911644;29;20615;-68
2022/05/03 12:40:47;;;;;;;5.70;3.33;;;;;22.70;101254.00;;;;4911567;29;20235;-68
2022/05/03 12:43:34;;;;;;;5.30;3.20;;;;;22.90;101251.00;;;;4914560;28;20304;-69
2022/05/03 12:46:27;;;;;;;3.97;3.00;;;;;22.10;101234.00;;;;4910634;29;20233;-66
2022/05/03 12:49:14;;;;;;;4.33;2.90;;;;;21.50;101241.00;;;;4904477;29;20263;-68
2022/05/03 12:52:01;;;;;;;4.57;3.50;;;;;21.00;101246.00;;;;4908612;29;20254;-69
2022/05/03 12:54:51;;;;;;;4.57;3.00;;;;;20.70;101241.00;;;;4911618;29;20369;-67
2022/05/03 13:00:50;;;;;;;5.30;2.83;;;;;21.50;101222.00;;;;4908376;29;20377;-68
2022/05/03 13:03:36;;;;;;;3.60;2.63;;;;;21.40;101229.00;;;;4911405;29;20682;-67
2022/05/03 13:06:23;;;;;;;4.27;2.97;;;;;21.70;101222.00;;;;4907459;29;20340;-67
2022/05/03 13:09:10;;;;;;;4.30;3.30;;;;;21.70;101231.00;;;;4911126;29;20246;-68
2022/05/03 13:11:57;;;;;;;5.57;3.10;;;;;21.50;101232.00;;;;4902902;29;20769;-69
2022/05/03 13:14:44;;;;;;;4.13;2.93;;;;;21.70;101220.00;;;;4911219;29;20242;-66
2022/05/03 13:17:31;;;;;;;4.13;2.80;;;;;22.40;101217.00;;;;4910291;29;20237;-69
2022/05/03 13:20:20;;;;;;;3.87;3.10;;;;;21.90;101220.00;;;;4903972;29;20760;-65
2022/05/03 13:23:06;;;;;;;3.73;3.10;;;;;21.40;101218.00;;;;4910750;29;20758;-68
2022/05/03 13:25:53;;;;;;;4.47;3.07;;;;;21.50;101217.00;;;;4911008;29;20624;-66
2022/05/03 13:28:39;;;;;;;4.83;3.07;;;;;21.20;101214.00;;;;4911147;29;20233;-68
2022/05/03 13:31:26;;;;;;;6.73;2.90;;;;;21.20;101215.00;;;;4904471;29;20317;-65
2022/05/03 13:34:14;;;;;;;5.10;2.77;;;;;20.80;101220.00;;;;4910879;29;20229;-65
2022/05/03 13:40:29;;;;;;;3.70;2.67;;;;;21.00;101210.00;;;;4909457;29;20250;-67
2022/05/03 13:43:16;;;;;;;4.23;2.87;;;;;22.30;101208.00;;;;4916069;28;20269;-68
2022/05/03 13:46:03;;;;;;;3.70;2.80;;;;;23.10;101209.00;;;;4919070;28;20243;-68
2022/05/03 13:48:49;;;;;;;5.07;2.80;;;;;23.10;101206.00;;;;4929366;28;20286;-68
2022/05/03 13:51:36;;;;;;;4.20;2.53;;;;;22.50;101216.00;;;;4929118;28;20260;-67
2022/05/03 13:54:23;;;;;;;3.33;2.60;;;;;23.00;101200.00;;;;4904938;29;20254;-68
2022/05/03 13:57:09;;;;;;;4.90;3.00;;;;;23.30;101209.00;;;;4910410;29;20350;-67
2022/05/03 13:59:55;;;;;;;5.70;3.30;;;;;22.50;101203.00;;;;4925216;29;20252;-68
2022/05/03 14:02:42;;;;;;;6.00;3.20;;;;;22.30;101205.00;;;;4929005;28;20253;-68
2022/05/03 14:05:29;;;;;;;5.07;2.77;;;;;21.90;101210.00;;;;4908522;29;20249;-66
2022/05/03 14:08:16;;;;;;;4.23;3.20;;;;;22.10;101207.00;;;;4922063;28;20226;-66
2022/05/03 14:11:03;;;;;;;3.13;2.57;;;;;22.80;101213.00;;;;4928796;28;20668;-68
2022/05/03 14:13:49;;;;;;;3.50;2.70;;;;;22.60;101215.00;;;;4925832;28;20287;-67
2022/05/03 14:16:36;;;;;;;3.13;2.50;;;;;22.20;101208.00;;;;4908324;28;20321;-67
2022/05/03 14:19:22;;;;;;;2.90;2.33;;;;;21.80;101200.00;;;;4905505;29;20617;-67
2022/05/03 14:22:08;;;;;;;4.00;2.83;;;;;21.60;101207.00;;;;4909393;29;20252;-68
2022/05/03 14:24:56;;;;;;;4.10;2.77;;;;;21.70;101206.00;;;;4910254;29;20236;-66
2022/05/03 14:27:43;;;;;;;3.80;2.97;;;;;22.10;101198.00;;;;4909707;29;20400;-65
2022/05/03 14:30:29;;;;;;;5.50;2.87;;;;;22.70;101204.00;;;;4904041;29;20373;-68
2022/05/03 14:33:15;;;;;;;3.70;2.83;;;;;23.40;101200.00;;;;4909530;29;20362;-67
2022/05/03 14:36:01;;;;;;;3.50;2.40;;;;;23.10;101194.00;;;;4908320;29;20271;-67
2022/05/03 14:38:48;;;;;;;5.17;2.50;;;;;22.60;101193.00;;;;4909668;29;20912;-67
2022/05/03 14:41:38;;;;;;;3.33;2.80;;;;;22.10;101185.00;;;;4906134;29;20240;-67
2022/05/03 14:44:24;;;;;;;3.57;2.87;;;;;22.00;101195.00;;;;4922287;28;20256;-68
2022/05/03 14:47:10;;;;;;;4.00;2.63;;;;;22.00;101192.00;;;;4928513;28;20240;-65